createdAt,value
2022-09-28T00:01:35.755Z,88.98
2022-09-28T00:06:39.245Z,89.57
2022-09-28T00:11:43.721Z,89.66
2022-09-28T00:16:47.019Z,89.97
2022-09-28T00:21:49.841Z,90.34
2022-09-28T00:26:55.098Z,90.60
2022-09-28T00:32:03.925Z,90.18
2022-09-28T00:37:09.060Z,90.64
2022-09-28T00:42:19.393Z,90.99
2022-09-28T00:47:43.823Z,90.87
2022-09-28T00:53:24.527Z,91.18
2022-09-28T00:58:32.500Z,91.51
2022-09-28T01:03:35.282Z,91.48
2022-09-28T01:08:40.176Z,92.15
2022-09-28T01:13:44.090Z,92.32
2022-09-28T01:19:05.644Z,92.62
2022-09-28T01:24:36.032Z,92.22
2022-09-28T01:29:48.309Z,91.75
2022-09-28T01:35:31.342Z,91.25
2022-09-28T01:40:36.184Z,91.06
2022-09-28T01:45:44.325Z,91.24
2022-09-28T01:50:53.801Z,91.31
2022-09-28T01:56:05.838Z,91.45
2022-09-28T02:01:15.277Z,91.92
2022-09-28T02:06:46.100Z,92.11
2022-09-28T02:11:56.324Z,92.32
2022-09-28T02:16:59.172Z,92.42
2022-09-28T02:22:37.501Z,92.65
2022-09-28T02:27:54.237Z,92.02
2022-09-28T02:33:03.603Z,92.10
2022-09-28T02:38:06.327Z,92.04
2022-09-28T02:43:16.441Z,92.36
2022-09-28T02:49:22.754Z,92.93
2022-09-28T02:54:44.298Z,93.07
2022-09-28T02:59:47.032Z,93.50
2022-09-28T03:05:11.942Z,93.78
2022-09-28T03:10:50.069Z,94.09
2022-09-28T03:15:52.882Z,94.21
2022-09-28T03:20:55.804Z,94.71
2022-09-28T03:25:59.082Z,95.03
2022-09-28T03:31:02.839Z,95.47
2022-09-28T03:36:06.048Z,95.62
2022-09-28T03:41:09.641Z,95.57
2022-09-28T03:46:12.466Z,95.68
2022-09-28T03:51:15.258Z,95.80
2022-09-28T03:56:18.252Z,95.71
2022-09-28T04:01:21.043Z,95.78
2022-09-28T04:06:25.233Z,95.92
2022-09-28T04:11:34.929Z,96.03
2022-09-28T04:16:48.197Z,96.22
2022-09-28T04:21:52.012Z,96.30
2022-09-28T04:27:14.700Z,96.46
2022-09-28T04:32:17.540Z,96.33
2022-09-28T04:37:20.425Z,96.25
2022-09-28T04:42:23.552Z,96.70
2022-09-28T04:47:26.643Z,96.75
2022-09-28T04:52:29.425Z,96.27
2022-09-28T04:57:34.846Z,95.91
2022-09-28T05:02:37.774Z,96.00
2022-09-28T05:07:41.938Z,95.86
2022-09-28T05:12:44.711Z,95.87
2022-09-28T05:17:47.451Z,96.38
2022-09-28T05:22:50.199Z,96.23
2022-09-28T05:27:57.124Z,96.34
2022-09-28T05:33:00.797Z,96.08
2022-09-28T05:38:05.747Z,95.64
2022-09-28T05:43:08.479Z,95.55
2022-09-28T05:48:11.354Z,96.09
2022-09-28T05:53:14.742Z,95.87
2022-09-28T05:58:17.602Z,96.16
2022-09-28T06:03:20.660Z,95.92
2022-09-28T06:08:23.724Z,96.21
2022-09-28T06:13:27.921Z,96.33
2022-09-28T06:18:30.665Z,96.11
2022-09-28T06:23:33.964Z,96.22
2022-09-28T06:28:37.639Z,96.71
2022-09-28T06:33:42.156Z,97.21
2022-09-28T06:38:45.461Z,96.50
2022-09-28T06:43:51.318Z,96.33
2022-09-28T06:48:54.271Z,96.03
2022-09-28T06:54:01.613Z,95.57
2022-09-28T06:59:08.078Z,95.16
2022-09-28T07:04:10.946Z,94.10
2022-09-28T07:09:29.514Z,93.67
2022-09-28T07:14:47.302Z,92.62
2022-09-28T07:20:10.468Z,92.28
2022-09-28T07:25:17.237Z,93.44
2022-09-28T07:30:20.741Z,94.31
2022-09-28T07:35:24.590Z,93.81
2022-09-28T07:40:48.452Z,93.33
2022-09-28T07:45:54.125Z,93.01
2022-09-28T07:51:00.198Z,92.66
2022-09-28T07:56:10.043Z,92.67
2022-09-28T08:01:17.769Z,91.94
2022-09-28T08:06:20.568Z,91.76
2022-09-28T08:11:23.623Z,91.33
2022-09-28T08:16:27.769Z,90.53
2022-09-28T08:21:46.332Z,89.68
2022-09-28T08:26:49.603Z,90.20
2022-09-28T08:31:52.446Z,90.18
2022-09-28T08:36:59.301Z,89.21
2022-09-28T08:42:28.080Z,89.23
2022-09-28T08:48:07.374Z,87.95
2022-09-28T08:53:41.018Z,86.17
2022-09-28T08:58:49.169Z,86.64
2022-09-28T09:03:52.527Z,85.89
2022-09-28T09:09:23.983Z,85.05
2022-09-28T09:15:10.466Z,84.46
2022-09-28T09:20:25.622Z,82.70
2022-09-28T09:25:47.568Z,81.52
2022-09-28T09:30:57.087Z,82.01
2022-09-28T09:36:22.095Z,82.33
2022-09-28T09:41:52.585Z,80.96
2022-09-28T09:47:34.010Z,79.59
2022-09-28T09:52:58.999Z,76.06
2022-09-28T09:58:12.286Z,75.39
2022-09-28T10:03:30.640Z,73.92
2022-09-28T10:08:40.861Z,71.66
2022-09-28T10:13:44.745Z,72.08
2022-09-28T10:18:49.729Z,72.16
2022-09-28T10:24:02.884Z,74.23
2022-09-28T10:29:15.004Z,73.47
2022-09-28T10:34:26.563Z,73.22
2022-09-28T10:39:51.168Z,74.08
2022-09-28T10:45:20.184Z,72.71
2022-09-28T10:50:25.737Z,72.77
2022-09-28T10:55:33.604Z,71.64
2022-09-28T11:00:42.731Z,72.83
2022-09-28T11:05:54.842Z,72.79
2022-09-28T11:11:11.976Z,73.11
2022-09-28T11:16:29.184Z,72.25
2022-09-28T11:21:42.695Z,72.02
2022-09-28T11:26:52.963Z,71.78
2022-09-28T11:32:04.960Z,72.88
2022-09-28T11:37:23.479Z,73.08
2022-09-28T11:42:57.521Z,73.74
2022-09-28T11:48:07.991Z,74.44
2022-09-28T11:53:31.222Z,73.85
2022-09-28T11:58:51.570Z,73.53
2022-09-28T12:04:02.581Z,70.71
2022-09-28T12:09:22.545Z,69.80
2022-09-28T12:14:30.956Z,67.93
2022-09-28T12:19:58.013Z,67.80
2022-09-28T12:25:03.908Z,67.87
2022-09-28T12:30:19.883Z,67.93
2022-09-28T12:35:25.984Z,67.54
2022-09-28T12:40:53.663Z,67.49
2022-09-28T12:46:28.187Z,68.85
2022-09-28T12:51:58.156Z,68.99
2022-09-28T12:57:16.140Z,68.36
2022-09-28T13:02:51.364Z,68.04
2022-09-28T13:07:56.899Z,68.00
2022-09-28T13:13:45.182Z,66.84
2022-09-28T13:19:03.130Z,66.38
2022-09-28T13:24:31.111Z,66.18
2022-09-28T13:29:36.978Z,66.43
2022-09-28T13:34:40.155Z,66.18
2022-09-28T13:39:45.937Z,66.73
2022-09-28T13:45:15.639Z,66.76
2022-09-28T13:50:56.892Z,66.47
2022-09-28T13:56:49.189Z,65.75
2022-09-28T14:02:06.778Z,64.35
2022-09-28T14:07:16.872Z,64.96
2022-09-28T14:12:34.218Z,65.29
2022-09-28T14:17:58.266Z,65.44
2022-09-28T14:23:10.849Z,66.04
2022-09-28T14:28:30.849Z,66.69
2022-09-28T14:33:34.711Z,67.74
2022-09-28T14:39:06.071Z,68.06
2022-09-28T14:44:12.765Z,68.75
2022-09-28T14:49:20.126Z,67.76
2022-09-28T14:54:27.974Z,67.93
2022-09-28T14:59:36.504Z,68.57
2022-09-28T15:04:50.995Z,69.35
2022-09-28T15:09:58.616Z,70.06
2022-09-28T15:15:08.700Z,70.12
2022-09-28T15:20:30.631Z,70.59
2022-09-28T15:25:35.280Z,70.79
2022-09-28T15:30:38.849Z,71.05
2022-09-28T15:35:41.793Z,71.72
2022-09-28T15:40:46.444Z,71.59
2022-09-28T15:46:02.714Z,72.17
2022-09-28T15:51:19.728Z,72.84
2022-09-28T15:56:22.705Z,73.50
2022-09-28T16:01:37.453Z,74.26
2022-09-28T16:06:41.836Z,75.06
2022-09-28T16:11:44.657Z,75.65
2022-09-28T16:16:58.160Z,75.92
2022-09-28T16:22:03.971Z,76.60
2022-09-28T16:27:40.175Z,77.23
2022-09-28T16:32:49.917Z,77.85
2022-09-28T16:38:01.738Z,78.36
2022-09-28T16:43:08.931Z,78.69
2022-09-28T16:48:20.339Z,79.30
2022-09-28T16:53:44.681Z,79.18
2022-09-28T16:58:49.426Z,78.90
2022-09-28T17:03:52.426Z,78.91
2022-09-28T17:08:56.759Z,79.04
2022-09-28T17:14:00.342Z,79.44
2022-09-28T17:19:03.187Z,79.57
2022-09-28T17:24:06.877Z,79.74
2022-09-28T17:29:14.623Z,80.14
2022-09-28T17:34:19.972Z,80.52
2022-09-28T17:39:25.171Z,80.72
2022-09-28T17:44:28.592Z,80.32
2022-09-28T17:49:31.441Z,79.98
2022-09-28T17:54:34.383Z,79.88
2022-09-28T17:59:44.800Z,80.10
2022-09-28T18:04:52.152Z,80.40
2022-09-28T18:09:58.224Z,80.63
2022-09-28T18:15:01.633Z,81.17
2022-09-28T18:20:06.908Z,81.37
2022-09-28T18:25:11.300Z,81.57
2022-09-28T18:30:14.048Z,81.68
2022-09-28T18:35:22.036Z,82.21
2022-09-28T18:40:25.973Z,82.28
2022-09-28T18:45:29.154Z,82.37
2022-09-28T18:50:32.892Z,82.47
2022-09-28T18:55:36.103Z,82.63
2022-09-28T19:00:42.412Z,82.62
2022-09-28T19:05:46.833Z,82.63
2022-09-28T19:10:49.712Z,82.94
2022-09-28T19:15:52.497Z,83.25
2022-09-28T19:20:55.238Z,83.44
2022-09-28T19:26:02.392Z,83.25
2022-09-28T19:31:17.036Z,83.42
2022-09-28T19:36:23.747Z,83.59
2022-09-28T19:41:46.011Z,83.62
2022-09-28T19:46:56.134Z,83.53
2022-09-28T19:52:12.798Z,83.83
2022-09-28T19:57:19.935Z,84.27
2022-09-28T20:02:22.804Z,84.60
2022-09-28T20:07:25.650Z,84.69
2022-09-28T20:12:28.434Z,85.08
2022-09-28T20:17:31.464Z,85.60
2022-09-28T20:22:34.579Z,85.94
2022-09-28T20:27:39.244Z,86.76
2022-09-28T20:32:44.189Z,87.28
2022-09-28T20:37:51.075Z,87.66
2022-09-28T20:42:53.805Z,88.25
2022-09-28T20:47:56.535Z,88.33
2022-09-28T20:53:00.375Z,88.29
2022-09-28T20:58:04.275Z,88.99
2022-09-28T21:03:08.670Z,89.03
2022-09-28T21:08:11.634Z,89.29
2022-09-28T21:13:14.534Z,89.37
2022-09-28T21:18:18.751Z,89.62
2022-09-28T21:23:24.943Z,89.81
2022-09-28T21:28:29.891Z,89.67
2022-09-28T21:33:32.990Z,89.63
2022-09-28T21:38:38.710Z,89.56
2022-09-28T21:43:41.580Z,89.69
2022-09-28T21:48:44.299Z,89.65
2022-09-28T21:53:49.226Z,89.90
2022-09-28T21:58:52.270Z,89.55
2022-09-28T22:03:56.848Z,89.94
2022-09-28T22:08:59.613Z,90.31
2022-09-28T22:14:02.314Z,90.06
2022-09-28T22:19:05.122Z,90.05
2022-09-28T22:24:08.040Z,90.29
2022-09-28T22:29:11.290Z,90.25
2022-09-28T22:34:13.993Z,91.10
2022-09-28T22:39:16.704Z,90.78
2022-09-28T22:44:20.261Z,90.47
2022-09-28T22:49:23.867Z,90.32
2022-09-28T22:54:26.604Z,90.25
2022-09-28T22:59:29.685Z,90.54
2022-09-28T23:04:32.387Z,90.97
2022-09-28T23:09:35.137Z,91.13
2022-09-28T23:14:37.925Z,90.16
2022-09-28T23:19:40.659Z,90.11
2022-09-28T23:24:43.378Z,90.63
2022-09-28T23:29:49.174Z,90.56
2022-09-28T23:34:51.964Z,90.76
2022-09-28T23:39:54.657Z,91.14
2022-09-28T23:44:57.448Z,91.30
2022-09-28T23:50:00.190Z,91.53
2022-09-28T23:55:03.824Z,91.51
